createdAt,value
2018-02-22T00:00:08.820Z,0.10
2018-02-22T00:02:36.278Z,-0.10
2018-02-22T00:05:03.777Z,-0.20
2018-02-22T00:07:32.036Z,-0.10
2018-02-22T00:09:59.492Z,-0.10
2018-02-22T00:12:26.994Z,-0.10
2018-02-22T00:14:54.465Z,-0.20
2018-02-22T00:17:21.964Z,-0.10
2018-02-22T00:19:50.197Z,-0.10
2018-02-22T00:22:18.469Z,-0.10
2018-02-22T00:24:45.929Z,-0.10
2018-02-22T00:27:13.433Z,-0.10
2018-02-22T00:29:40.895Z,-0.20
2018-02-22T00:32:08.409Z,-0.20
2018-02-22T00:34:36.633Z,-0.20
2018-02-22T00:37:04.098Z,-0.20
2018-02-22T00:39:31.584Z,-0.30
2018-02-22T00:41:59.049Z,-0.20
2018-02-22T00:44:26.577Z,-0.20
2018-02-22T00:46:54.013Z,-0.20
2018-02-22T00:49:21.510Z,-0.10
2018-02-22T00:51:48.991Z,-0.10
2018-02-22T00:54:16.498Z,-0.10
2018-02-22T00:56:43.970Z,-0.10
2018-02-22T00:59:11.458Z,0.00
2018-02-22T01:01:38.914Z,0.00
2018-02-22T01:04:06.414Z,0.00
2018-02-22T01:06:33.877Z,0.00
2018-02-22T01:09:01.369Z,0.00
2018-02-22T01:11:28.829Z,-0.10
2018-02-22T01:13:56.314Z,-0.10
2018-02-22T01:16:23.773Z,-0.10
2018-02-22T01:18:51.262Z,-0.20
2018-02-22T01:21:18.734Z,-0.10
2018-02-22T01:23:46.234Z,-0.20
2018-02-22T01:26:14.459Z,-0.10
2018-02-22T01:28:41.954Z,-0.10
2018-02-22T01:31:09.414Z,-0.10
2018-02-22T01:33:36.906Z,-0.10
2018-02-22T01:36:04.358Z,0.00
2018-02-22T01:38:31.858Z,0.00
2018-02-22T01:40:59.317Z,0.00
2018-02-22T01:43:26.822Z,-0.10
2018-02-22T01:45:55.047Z,-0.30
2018-02-22T01:48:22.537Z,-0.20
2018-02-22T01:50:49.993Z,-0.30
2018-02-22T01:53:17.481Z,-0.30
2018-02-22T01:55:44.937Z,-0.40
2018-02-22T01:58:12.433Z,-0.40
2018-02-22T02:00:39.896Z,-0.40
2018-02-22T02:03:07.386Z,-0.50
2018-02-22T02:05:39.529Z,-0.60
2018-02-22T02:08:07.022Z,-0.70
2018-02-22T02:10:34.511Z,-0.80
2018-02-22T02:13:02.005Z,-0.90
2018-02-22T02:15:30.238Z,-1.00
2018-02-22T02:17:57.685Z,-1.00
2018-02-22T02:20:25.176Z,-1.10
2018-02-22T02:22:52.632Z,-1.00
2018-02-22T02:25:20.116Z,-1.10
2018-02-22T02:27:53.246Z,-1.20
2018-02-22T02:30:20.728Z,-1.30
2018-02-22T02:32:48.213Z,-1.40
2018-02-22T02:35:16.441Z,-1.40
2018-02-22T02:37:43.931Z,-1.40
2018-02-22T02:40:11.389Z,-1.30
2018-02-22T02:42:38.873Z,-1.30
2018-02-22T02:45:06.328Z,-1.30
2018-02-22T02:47:33.821Z,-1.30
2018-02-22T02:50:01.268Z,-1.40
2018-02-22T02:52:28.757Z,-1.30
2018-02-22T02:54:56.244Z,-1.40
2018-02-22T02:57:23.709Z,-1.30
2018-02-22T02:59:51.198Z,-1.20
2018-02-22T03:02:18.650Z,-1.20
2018-02-22T03:04:46.153Z,-1.20
2018-02-22T03:07:13.605Z,-1.20
2018-02-22T03:09:41.106Z,-1.20
2018-02-22T03:12:08.569Z,-1.20
2018-02-22T03:14:36.828Z,-1.20
2018-02-22T03:17:04.303Z,-1.30
2018-02-22T03:19:31.780Z,-1.30
2018-02-22T03:21:59.237Z,-1.30
2018-02-22T03:24:26.716Z,-1.20
2018-02-22T03:26:54.167Z,-1.20
2018-02-22T03:29:21.654Z,-1.10
2018-02-22T03:31:49.109Z,-1.10
2018-02-22T03:34:16.606Z,-1.10
2018-02-22T03:36:44.231Z,-1.20
2018-02-22T03:39:11.740Z,-1.10
2018-02-22T03:41:39.196Z,-1.20
2018-02-22T03:44:06.676Z,-1.30
2018-02-22T03:46:34.129Z,-1.40
2018-02-22T03:49:01.609Z,-1.40
2018-02-22T03:51:29.065Z,-1.30
2018-02-22T03:53:56.552Z,-1.40
2018-02-22T03:56:24.021Z,-1.40
2018-02-22T03:58:51.496Z,-1.50
2018-02-22T04:01:18.962Z,-1.40
2018-02-22T04:03:46.445Z,-1.40
2018-02-22T04:06:13.905Z,-1.50
2018-02-22T04:08:41.392Z,-1.40
2018-02-22T04:11:08.853Z,-1.40
2018-02-22T04:13:36.334Z,-1.40
2018-02-22T04:16:03.794Z,-1.20
2018-02-22T04:18:31.287Z,-1.30
2018-02-22T04:20:58.748Z,-1.20
2018-02-22T04:23:26.239Z,-1.20
2018-02-22T04:25:53.690Z,-1.20
2018-02-22T04:28:21.178Z,-1.10
2018-02-22T04:30:48.637Z,-1.10
2018-02-22T04:33:16.129Z,-1.20
2018-02-22T04:35:44.355Z,-1.10
2018-02-22T04:38:11.839Z,-1.20
2018-02-22T04:40:39.299Z,-1.20
2018-02-22T04:43:06.798Z,-1.10
2018-02-22T04:45:34.258Z,-1.10
2018-02-22T04:48:01.745Z,-1.10
2018-02-22T04:50:29.209Z,-1.10
2018-02-22T04:52:57.535Z,-1.00
2018-02-22T04:55:25.752Z,-0.90
2018-02-22T04:57:53.237Z,-0.90
2018-02-22T05:00:20.698Z,-0.90
2018-02-22T05:02:48.185Z,-0.90
2018-02-22T05:05:15.677Z,-0.90
2018-02-22T05:07:43.194Z,-0.90
2018-02-22T05:10:10.691Z,-0.90
2018-02-22T05:12:38.189Z,-1.00
2018-02-22T05:15:05.654Z,-0.90
2018-02-22T05:17:33.139Z,-1.00
2018-02-22T05:20:00.601Z,-0.90
2018-02-22T05:22:28.089Z,-0.90
2018-02-22T05:24:55.551Z,-0.90
2018-02-22T05:27:23.042Z,-0.90
2018-02-22T05:29:50.499Z,-0.90
2018-02-22T05:32:17.988Z,-1.00
2018-02-22T05:34:46.208Z,-1.10
2018-02-22T05:37:13.689Z,-1.20
2018-02-22T05:39:41.153Z,-1.10
2018-02-22T05:42:08.637Z,-1.10
2018-02-22T05:44:36.118Z,-1.10
2018-02-22T05:47:03.601Z,-1.10
2018-02-22T05:49:31.056Z,-1.00
2018-02-22T05:51:58.541Z,-1.10
2018-02-22T05:54:26.000Z,-1.10
2018-02-22T05:56:53.494Z,-1.00
2018-02-22T05:59:20.968Z,-1.00
2018-02-22T06:01:48.445Z,-1.10
2018-02-22T06:04:15.913Z,-1.00
2018-02-22T06:06:43.412Z,-0.90
2018-02-22T06:09:11.646Z,-1.00
2018-02-22T06:11:39.141Z,-1.00
2018-02-22T06:14:06.601Z,-1.00
2018-02-22T06:16:34.089Z,-1.00
2018-02-22T06:19:01.549Z,-1.00
2018-02-22T06:21:29.048Z,-1.00
2018-02-22T06:23:57.257Z,-1.10
2018-02-22T06:26:24.749Z,-1.10
2018-02-22T06:28:52.209Z,-1.00
2018-02-22T06:31:19.707Z,-1.00
2018-02-22T06:33:47.171Z,-1.00
2018-02-22T06:36:14.673Z,-1.00
2018-02-22T06:38:42.124Z,-1.00
2018-02-22T06:41:09.635Z,-0.90
2018-02-22T06:43:37.848Z,-0.80
2018-02-22T06:46:05.340Z,-0.80
2018-02-22T06:48:32.800Z,-0.90
2018-02-22T06:51:03.006Z,-0.90
2018-02-22T06:53:30.458Z,-1.00
2018-02-22T06:55:57.938Z,-1.00
2018-02-22T06:58:26.156Z,-0.80
2018-02-22T07:00:53.653Z,-0.80
2018-02-22T07:03:21.110Z,-0.90
2018-02-22T07:05:48.602Z,-0.80
2018-02-22T07:08:16.074Z,-0.70
2018-02-22T07:10:43.598Z,-0.80
2018-02-22T07:13:11.817Z,-0.70
2018-02-22T07:15:39.324Z,-0.80
2018-02-22T07:18:06.787Z,-0.70
2018-02-22T07:20:34.329Z,-0.70
2018-02-22T07:23:01.733Z,-0.70
2018-02-22T07:25:29.230Z,-0.60
2018-02-22T07:27:56.689Z,-0.60
2018-02-22T07:30:24.172Z,-0.70
2018-02-22T07:32:52.403Z,-0.70
2018-02-22T07:35:19.898Z,-0.70
2018-02-22T07:37:47.348Z,-0.60
2018-02-22T07:40:14.837Z,-0.60
2018-02-22T07:42:42.297Z,-0.60
2018-02-22T07:45:09.784Z,-0.60
2018-02-22T07:47:37.248Z,-0.50
2018-02-22T07:50:04.737Z,-0.50
2018-02-22T07:52:32.721Z,-0.50
2018-02-22T07:55:00.293Z,-0.40
2018-02-22T07:57:27.769Z,-0.60
2018-02-22T07:59:55.269Z,-0.40
2018-02-22T08:02:23.494Z,-0.30
2018-02-22T08:04:50.989Z,-0.30
2018-02-22T08:07:18.452Z,-0.30
2018-02-22T08:09:45.945Z,-0.40
2018-02-22T08:12:13.401Z,-0.30
2018-02-22T08:14:40.884Z,-0.40
2018-02-22T08:17:08.348Z,-0.20
2018-02-22T08:19:35.845Z,-0.20
2018-02-22T08:22:04.060Z,0.00
2018-02-22T08:24:31.565Z,0.00
2018-02-22T08:26:59.025Z,-0.10
2018-02-22T08:29:26.517Z,-0.10
2018-02-22T08:31:54.231Z,0.00
2018-02-22T08:34:22.477Z,0.10
2018-02-22T08:36:49.916Z,0.10
2018-02-22T08:39:17.401Z,0.10
2018-02-22T08:41:44.874Z,0.10
2018-02-22T08:44:12.368Z,0.20
2018-02-22T08:46:39.831Z,0.30
2018-02-22T08:49:07.318Z,0.40
2018-02-22T08:51:34.772Z,0.40
2018-02-22T08:54:02.270Z,0.40
2018-02-22T08:56:29.938Z,0.30
2018-02-22T08:58:57.422Z,0.30
2018-02-22T09:01:24.875Z,0.30
2018-02-22T09:03:52.357Z,0.40
2018-02-22T09:06:19.809Z,0.50
2018-02-22T09:08:47.308Z,0.40
2018-02-22T09:11:14.739Z,0.40
2018-02-22T09:13:42.224Z,0.50
2018-02-22T09:16:09.706Z,0.60
2018-02-22T09:18:37.192Z,0.70
2018-02-22T09:21:05.396Z,0.40
2018-02-22T09:23:33.542Z,0.40
2018-02-22T09:26:00.992Z,0.60
2018-02-22T09:28:28.485Z,0.60
2018-02-22T09:30:55.934Z,0.70
2018-02-22T09:33:23.390Z,0.70
2018-02-22T09:35:50.873Z,0.80
2018-02-22T09:38:18.373Z,0.80
2018-02-22T09:40:45.822Z,0.90
2018-02-22T09:43:14.196Z,1.00
2018-02-22T09:45:41.650Z,1.10
2018-02-22T09:48:09.113Z,1.20
2018-02-22T09:50:39.366Z,1.50
2018-02-22T09:53:06.830Z,1.50
2018-02-22T09:55:34.317Z,1.60
2018-02-22T09:58:01.770Z,1.50
2018-02-22T10:00:29.252Z,1.50
2018-02-22T10:02:56.705Z,1.50
2018-02-22T10:05:24.217Z,1.50
2018-02-22T10:07:51.675Z,1.50
2018-02-22T10:10:19.154Z,1.40
2018-02-22T10:12:46.616Z,1.40
2018-02-22T10:15:14.148Z,1.10
2018-02-22T10:17:41.634Z,1.10
2018-02-22T10:20:09.921Z,1.20
2018-02-22T10:22:37.405Z,1.10
2018-02-22T10:25:04.861Z,1.20
2018-02-22T10:27:33.117Z,1.20
2018-02-22T10:30:00.569Z,1.20
2018-02-22T10:32:31.320Z,1.20
2018-02-22T10:34:58.772Z,1.20
2018-02-22T10:37:26.249Z,1.00
2018-02-22T10:39:53.712Z,0.90
2018-02-22T10:42:21.193Z,0.80
2018-02-22T10:44:48.722Z,0.80
2018-02-22T10:47:16.131Z,0.80
2018-02-22T10:49:43.580Z,0.70
2018-02-22T10:52:11.063Z,0.80
2018-02-22T10:54:38.519Z,0.80
2018-02-22T10:57:06.018Z,0.80
2018-02-22T10:59:33.471Z,0.90
2018-02-22T11:02:06.635Z,0.90
2018-02-22T11:04:34.094Z,0.90
2018-02-22T11:07:01.545Z,1.00
2018-02-22T11:09:29.022Z,1.00
2018-02-22T11:11:56.481Z,1.00
2018-02-22T11:14:23.971Z,1.10
2018-02-22T11:16:51.417Z,1.10
2018-02-22T11:19:18.904Z,1.20
2018-02-22T11:21:46.353Z,1.20
2018-02-22T11:24:13.836Z,1.20
2018-02-22T11:26:41.297Z,1.20
2018-02-22T11:29:08.788Z,1.20
2018-02-22T11:31:36.239Z,1.20
2018-02-22T11:34:03.729Z,1.20
2018-02-22T11:36:31.187Z,1.20
2018-02-22T11:38:58.668Z,1.20
2018-02-22T11:41:26.116Z,1.20
2018-02-22T11:43:53.596Z,1.20
2018-02-22T11:46:21.054Z,1.40
2018-02-22T11:48:48.538Z,1.30
2018-02-22T11:51:15.997Z,1.40
2018-02-22T11:53:43.481Z,1.50
2018-02-22T11:56:10.938Z,1.50
2018-02-22T11:58:38.422Z,1.60
2018-02-22T12:01:05.876Z,1.60
2018-02-22T12:03:33.353Z,1.60
2018-02-22T12:06:00.813Z,1.50
2018-02-22T12:08:28.293Z,1.50
2018-02-22T12:10:55.744Z,1.40
2018-02-22T12:13:23.234Z,1.40
2018-02-22T12:15:50.677Z,1.40
2018-02-22T12:18:18.930Z,1.30
2018-02-22T12:20:46.384Z,1.30
2018-02-22T12:23:13.872Z,1.30
2018-02-22T12:25:41.325Z,1.30
2018-02-22T12:28:08.812Z,1.30
2018-02-22T12:30:36.367Z,1.30
2018-02-22T12:33:03.837Z,1.30
2018-02-22T12:35:31.305Z,1.30
2018-02-22T12:37:58.790Z,1.40
2018-02-22T12:40:26.242Z,1.50
2018-02-22T12:42:53.728Z,1.50
2018-02-22T12:45:21.189Z,1.50
2018-02-22T12:47:48.677Z,1.50
2018-02-22T12:50:16.142Z,1.50
2018-02-22T12:52:43.621Z,1.50
2018-02-22T12:55:11.073Z,1.50
2018-02-22T12:57:38.560Z,1.50
2018-02-22T13:00:06.022Z,1.40
2018-02-22T13:02:33.499Z,1.40
2018-02-22T13:05:01.014Z,1.40
2018-02-22T13:07:29.270Z,1.40
2018-02-22T13:09:56.721Z,1.40
2018-02-22T13:12:24.218Z,1.40
2018-02-22T13:14:51.674Z,1.40
2018-02-22T13:17:19.178Z,1.40
2018-02-22T13:19:47.391Z,1.40
2018-02-22T13:22:14.850Z,1.40
2018-02-22T13:24:42.341Z,1.40
2018-02-22T13:27:09.798Z,1.40
2018-02-22T13:29:37.276Z,1.40
2018-02-22T13:32:04.724Z,1.30
2018-02-22T13:34:36.394Z,1.30
2018-02-22T13:37:15.412Z,1.30
2018-02-22T13:39:42.897Z,1.40
2018-02-22T13:42:11.171Z,1.40
2018-02-22T13:44:50.225Z,1.30
2018-02-22T13:47:17.689Z,1.40
2018-02-22T13:49:56.778Z,1.40
2018-02-22T13:52:24.311Z,1.40
2018-02-22T13:54:51.760Z,1.40
2018-02-22T13:57:19.218Z,1.50
2018-02-22T13:59:46.706Z,1.40
2018-02-22T14:02:24.691Z,1.50
2018-02-22T14:04:52.169Z,1.60
2018-02-22T14:07:19.625Z,1.50
2018-02-22T14:09:47.114Z,1.50
2018-02-22T14:12:14.565Z,1.50
2018-02-22T14:14:42.069Z,1.40
2018-02-22T14:17:09.549Z,1.40
2018-02-22T14:19:36.997Z,1.40
2018-02-22T14:22:04.458Z,1.40
2018-02-22T14:24:31.939Z,1.40
2018-02-22T14:26:59.389Z,1.40
2018-02-22T14:29:26.874Z,1.40
2018-02-22T14:31:54.335Z,1.50
2018-02-22T14:34:21.790Z,1.50
2018-02-22T14:36:49.278Z,1.50
2018-02-22T14:39:16.735Z,1.50
2018-02-22T14:41:44.985Z,1.60
2018-02-22T14:44:12.473Z,1.60
2018-02-22T14:46:39.962Z,1.50
2018-02-22T14:49:07.444Z,1.60
2018-02-22T14:51:34.900Z,1.70
2018-02-22T14:54:02.381Z,1.70
2018-02-22T14:56:29.852Z,1.70
2018-02-22T14:58:57.361Z,1.70
2018-02-22T15:01:24.847Z,1.70
2018-02-22T15:03:52.260Z,1.80
2018-02-22T15:06:20.727Z,1.90
2018-02-22T15:08:48.264Z,1.90
2018-02-22T15:11:15.767Z,1.90
2018-02-22T15:13:43.274Z,1.90
2018-02-22T15:16:10.830Z,1.90
2018-02-22T15:18:39.081Z,1.90
2018-02-22T15:21:06.589Z,1.90
2018-02-22T15:23:34.822Z,2.00
2018-02-22T15:26:02.317Z,2.00
2018-02-22T15:28:29.764Z,1.90
2018-02-22T15:30:57.270Z,1.70
2018-02-22T15:33:24.752Z,1.80
2018-02-22T15:35:52.250Z,1.80
2018-02-22T15:38:19.753Z,1.80
2018-02-22T15:40:47.240Z,1.80
2018-02-22T15:43:14.742Z,1.80
2018-02-22T15:45:42.203Z,1.80
2018-02-22T15:48:09.645Z,1.80
2018-02-22T15:50:37.136Z,1.70
2018-02-22T15:53:04.609Z,1.70
2018-02-22T15:55:32.092Z,1.60
2018-02-22T15:57:59.554Z,1.60
2018-02-22T16:00:27.037Z,1.60
2018-02-22T16:02:54.519Z,1.50
2018-02-22T16:05:22.002Z,1.60
2018-02-22T16:07:50.230Z,1.60
2018-02-22T16:10:17.720Z,1.60
2018-02-22T16:12:45.171Z,1.60
2018-02-22T16:15:12.659Z,1.60
2018-02-22T16:17:40.109Z,1.60
2018-02-22T16:20:07.615Z,1.50
2018-02-22T16:22:35.102Z,1.60
2018-02-22T16:25:03.500Z,1.50
2018-02-22T16:27:31.154Z,1.60
2018-02-22T16:29:58.611Z,1.60
2018-02-22T16:32:26.065Z,1.60
2018-02-22T16:34:53.540Z,1.50
2018-02-22T16:37:20.997Z,1.40
2018-02-22T16:39:48.477Z,1.50
2018-02-22T16:42:15.943Z,1.50
2018-02-22T16:44:43.448Z,1.50
2018-02-22T16:47:10.894Z,1.60
2018-02-22T16:52:41.120Z,1.50
2018-02-22T16:55:08.608Z,1.50
2018-02-22T16:57:36.086Z,1.50
2018-02-22T17:00:03.585Z,1.50
2018-02-22T17:02:31.077Z,1.50
2018-02-22T17:04:58.536Z,1.50
2018-02-22T17:07:26.025Z,1.50
2018-02-22T17:09:54.253Z,1.50
2018-02-22T17:12:21.754Z,1.50
2018-02-22T17:14:49.201Z,1.50
2018-02-22T17:17:16.720Z,1.40
2018-02-22T17:19:44.201Z,1.50
2018-02-22T17:22:12.456Z,1.50
2018-02-22T17:24:39.922Z,1.40
2018-02-22T17:27:12.974Z,1.40
2018-02-22T17:29:46.865Z,1.50
2018-02-22T17:32:18.657Z,1.40
2018-02-22T17:34:46.881Z,1.50
2018-02-22T17:37:15.168Z,1.50
2018-02-22T17:39:48.289Z,1.50
2018-02-22T17:42:15.772Z,1.40
2018-02-22T17:44:43.243Z,1.40
2018-02-22T17:47:10.736Z,1.40
2018-02-22T17:49:38.185Z,1.40
2018-02-22T17:52:17.990Z,1.40
2018-02-22T17:54:46.269Z,1.40
2018-02-22T17:57:13.765Z,1.30
2018-02-22T17:59:41.225Z,1.30
2018-02-22T18:02:22.581Z,1.40
2018-02-22T18:04:50.039Z,1.30
2018-02-22T18:07:17.521Z,1.30
2018-02-22T18:09:44.993Z,1.40
2018-02-22T18:12:12.522Z,1.30
2018-02-22T18:14:39.987Z,1.30
2018-02-22T18:17:08.254Z,1.40
2018-02-22T18:19:35.709Z,1.40
2018-02-22T18:22:23.659Z,1.40
2018-02-22T18:24:51.265Z,1.40
2018-02-22T18:27:19.516Z,1.40
2018-02-22T18:29:47.022Z,1.30
2018-02-22T18:32:14.464Z,1.30
2018-02-22T18:34:41.921Z,1.40
2018-02-22T18:37:14.962Z,1.40
2018-02-22T18:39:48.112Z,1.30
2018-02-22T18:42:21.356Z,1.30
2018-02-22T18:44:54.485Z,1.30
2018-02-22T18:47:22.745Z,1.20
2018-02-22T18:49:50.234Z,1.20
2018-02-22T18:52:17.720Z,1.30
2018-02-22T18:54:45.202Z,1.20
2018-02-22T18:57:13.564Z,1.40
2018-02-22T18:59:41.020Z,1.30
2018-02-22T19:02:08.509Z,1.30
2018-02-22T19:04:35.965Z,1.40
2018-02-22T19:07:03.458Z,1.40
2018-02-22T19:09:31.685Z,1.40
2018-02-22T19:11:59.194Z,1.30
2018-02-22T19:14:26.649Z,1.30
2018-02-22T19:16:55.029Z,1.30
2018-02-22T19:19:22.496Z,1.30
2018-02-22T19:21:49.994Z,1.30
2018-02-22T19:24:17.494Z,1.30
2018-02-22T19:26:44.990Z,1.40
2018-02-22T19:29:13.347Z,1.40
2018-02-22T19:31:40.837Z,1.40
2018-02-22T19:34:09.065Z,1.40
2018-02-22T19:36:36.556Z,1.40
2018-02-22T19:39:04.022Z,1.40
2018-02-22T19:41:31.513Z,1.40
2018-02-22T19:43:58.965Z,1.40
2018-02-22T19:46:26.476Z,1.30
2018-02-22T19:48:53.936Z,1.30
2018-02-22T19:51:21.436Z,1.30
2018-02-22T19:53:48.893Z,1.30
2018-02-22T19:56:16.390Z,1.30
2018-02-22T19:58:43.881Z,1.30
2018-02-22T20:01:11.374Z,1.40
2018-02-22T20:03:38.841Z,1.30
2018-02-22T20:06:06.324Z,1.40
2018-02-22T20:08:33.793Z,1.30
2018-02-22T20:11:01.281Z,1.30
2018-02-22T20:13:29.546Z,1.30
2018-02-22T20:15:57.029Z,1.30
2018-02-22T20:18:24.496Z,1.30
2018-02-22T20:20:51.993Z,1.30
2018-02-22T20:23:20.224Z,1.30
2018-02-22T20:25:47.729Z,1.30
2018-02-22T20:28:15.186Z,1.30
2018-02-22T20:30:42.756Z,1.30
2018-02-22T20:33:10.209Z,1.30
2018-02-22T20:35:37.701Z,1.20
2018-02-22T20:38:05.172Z,1.20
2018-02-22T20:40:32.662Z,1.30
2018-02-22T20:43:00.140Z,1.30
2018-02-22T20:45:27.932Z,1.40
2018-02-22T20:47:55.450Z,1.30
2018-02-22T20:50:22.936Z,1.40
2018-02-22T20:53:07.590Z,1.40
2018-02-22T20:55:35.496Z,1.40
2018-02-22T20:58:02.955Z,1.40
2018-02-22T21:00:30.444Z,1.40
2018-02-22T21:02:57.885Z,1.30
2018-02-22T21:05:25.365Z,1.30
2018-02-22T21:07:52.825Z,1.30
2018-02-22T21:10:20.313Z,1.30
2018-02-22T21:12:53.618Z,1.20
2018-02-22T21:15:21.093Z,1.30
2018-02-22T21:17:48.541Z,1.20
2018-02-22T21:20:17.958Z,1.20
2018-02-22T21:22:45.408Z,1.20
2018-02-22T21:25:12.901Z,1.20
2018-02-22T21:27:40.387Z,1.30
2018-02-22T21:30:19.689Z,1.30
2018-02-22T21:32:52.803Z,1.20
2018-02-22T21:35:21.079Z,1.00
2018-02-22T21:37:48.535Z,1.00
2018-02-22T21:40:16.030Z,1.00
2018-02-22T21:42:44.305Z,1.00
2018-02-22T21:45:12.551Z,1.10
2018-02-22T21:47:40.026Z,1.00
2018-02-22T21:50:07.514Z,1.00
2018-02-22T21:52:34.971Z,1.00
2018-02-22T21:55:02.458Z,1.10
2018-02-22T21:57:29.908Z,1.20
2018-02-22T21:59:57.397Z,1.20
2018-02-22T22:02:24.845Z,1.20
2018-02-22T22:04:52.333Z,1.30
2018-02-22T22:07:19.776Z,1.20
2018-02-22T22:09:47.293Z,1.30
2018-02-22T22:12:14.756Z,1.30
2018-02-22T22:14:42.236Z,1.20
2018-02-22T22:17:09.692Z,1.30
2018-02-22T22:19:37.178Z,1.20
2018-02-22T22:22:04.632Z,1.20
2018-02-22T22:24:32.112Z,1.20
2018-02-22T22:26:59.565Z,1.00
2018-02-22T22:29:27.049Z,1.00
2018-02-22T22:31:54.766Z,0.90
2018-02-22T22:34:23.032Z,1.00
2018-02-22T22:36:50.486Z,1.00
2018-02-22T22:39:17.946Z,1.10
2018-02-22T22:41:45.448Z,1.10
2018-02-22T22:44:12.941Z,1.00
2018-02-22T22:46:40.538Z,1.10
2018-02-22T22:49:07.996Z,1.00
2018-02-22T22:51:35.475Z,1.00
2018-02-22T22:54:02.929Z,1.00
2018-02-22T22:56:30.405Z,0.90
2018-02-22T22:58:57.852Z,0.90
2018-02-22T23:01:25.340Z,0.80
2018-02-22T23:03:53.549Z,0.90
2018-02-22T23:06:21.212Z,0.90
2018-02-22T23:08:48.848Z,1.00
2018-02-22T23:11:17.237Z,0.90
2018-02-22T23:13:45.491Z,0.90
2018-02-22T23:16:12.949Z,0.90
2018-02-22T23:18:40.412Z,1.00
2018-02-22T23:21:07.865Z,1.00
2018-02-22T23:23:36.089Z,1.10
2018-02-22T23:26:03.548Z,1.10
2018-02-22T23:28:31.014Z,1.00
2018-02-22T23:30:58.463Z,1.00
2018-02-22T23:33:26.702Z,0.90
2018-02-22T23:35:54.159Z,0.90
2018-02-22T23:38:21.612Z,1.00
2018-02-22T23:40:49.128Z,1.00
2018-02-22T23:43:16.579Z,1.00
2018-02-22T23:45:44.193Z,1.00
2018-02-22T23:48:11.649Z,1.00
2018-02-22T23:50:39.110Z,1.00
2018-02-22T23:53:06.564Z,1.00
2018-02-22T23:55:35.009Z,1.00
2018-02-22T23:58:03.234Z,1.10
